createdAt,value
2024-03-04T00:00:34.749Z,7.93
2024-03-04T00:03:02.828Z,7.22
2024-03-04T00:05:30.546Z,7.32
2024-03-04T00:07:58.346Z,7.75
2024-03-04T00:10:26.048Z,8.23
2024-03-04T00:12:53.783Z,8.40
2024-03-04T00:15:21.412Z,8.43
2024-03-04T00:17:51.337Z,8.40
2024-03-04T00:20:19.483Z,9.60
2024-03-04T00:22:48.574Z,8.93
2024-03-04T00:25:17.292Z,8.63
2024-03-04T00:27:45.675Z,9.70
2024-03-04T00:30:14.233Z,9.13
2024-03-04T00:32:42.065Z,9.55
2024-03-04T00:35:12.035Z,8.55
2024-03-04T00:37:39.778Z,9.68
2024-03-04T00:40:09.518Z,8.68
2024-03-04T00:42:39.371Z,9.82
2024-03-04T00:45:07.970Z,8.88
2024-03-04T00:47:35.659Z,9.10
2024-03-04T00:50:03.928Z,9.80
2024-03-04T00:52:33.007Z,9.82
2024-03-04T00:55:02.058Z,8.60
2024-03-04T00:57:29.702Z,9.60
2024-03-04T00:59:58.398Z,9.80
2024-03-04T01:02:26.013Z,9.10
2024-03-04T01:04:53.682Z,9.57
2024-03-04T01:07:21.410Z,10.57
2024-03-04T01:09:50.391Z,9.52
2024-03-04T01:12:18.121Z,10.57
2024-03-04T01:14:45.760Z,10.65
2024-03-04T01:17:18.034Z,10.23
2024-03-04T01:19:47.768Z,9.73
2024-03-04T01:22:17.570Z,10.20
2024-03-04T01:24:45.726Z,12.27
2024-03-04T01:27:15.511Z,14.65
2024-03-04T01:29:43.491Z,13.00
2024-03-04T01:32:11.642Z,14.13
2024-03-04T01:34:41.270Z,14.88
2024-03-04T01:37:09.248Z,15.63
2024-03-04T01:39:37.316Z,15.00
2024-03-04T01:42:05.073Z,15.98
2024-03-04T01:44:36.875Z,17.42
2024-03-04T01:47:06.825Z,16.83
2024-03-04T01:49:37.393Z,18.60
2024-03-04T01:52:07.008Z,18.27
2024-03-04T01:54:37.193Z,18.83
2024-03-04T01:57:05.335Z,19.15
2024-03-04T01:59:35.332Z,20.27
2024-03-04T02:02:07.418Z,19.55
2024-03-04T02:04:35.759Z,20.75
2024-03-04T02:07:04.037Z,20.20
2024-03-04T02:09:32.691Z,20.25
2024-03-04T02:12:00.658Z,21.08
2024-03-04T02:14:28.449Z,20.33
2024-03-04T02:16:57.415Z,21.58
2024-03-04T02:19:25.232Z,21.80
2024-03-04T02:21:57.235Z,22.05
2024-03-04T02:24:26.269Z,22.75
2024-03-04T02:26:54.369Z,22.30
2024-03-04T02:29:21.967Z,23.48
2024-03-04T02:31:50.193Z,24.83
2024-03-04T02:34:18.652Z,25.35
2024-03-04T02:36:46.450Z,24.98
2024-03-04T02:39:14.326Z,25.50
2024-03-04T02:41:43.270Z,24.88
2024-03-04T02:44:10.885Z,26.23
2024-03-04T02:46:41.248Z,26.13
2024-03-04T02:49:08.988Z,25.63
2024-03-04T02:51:36.709Z,27.17
2024-03-04T02:54:04.937Z,26.75
2024-03-04T02:56:32.541Z,28.35
2024-03-04T02:59:01.740Z,27.73
2024-03-04T03:01:29.567Z,28.33
2024-03-04T03:03:57.344Z,29.17
2024-03-04T03:06:26.528Z,28.23
2024-03-04T03:08:54.197Z,29.85
2024-03-04T03:11:21.840Z,27.73
2024-03-04T03:13:49.495Z,28.15
2024-03-04T03:16:21.907Z,27.25
2024-03-04T03:18:50.312Z,28.52
2024-03-04T03:21:18.609Z,27.42
2024-03-04T03:23:47.541Z,26.98
2024-03-04T03:26:15.148Z,27.27
2024-03-04T03:28:42.962Z,26.48
2024-03-04T03:31:11.439Z,27.58
2024-03-04T03:33:40.528Z,27.42
2024-03-04T03:36:08.690Z,27.98
2024-03-04T03:38:36.514Z,28.25
2024-03-04T03:41:05.191Z,27.40
2024-03-04T03:43:32.961Z,26.83
2024-03-04T03:46:02.470Z,27.20
2024-03-04T03:48:30.974Z,27.13
2024-03-04T03:51:00.219Z,26.65
2024-03-04T03:53:27.863Z,26.83
2024-03-04T03:55:55.495Z,25.88
2024-03-04T03:58:23.245Z,25.13
2024-03-04T04:00:50.990Z,23.08
2024-03-04T04:03:18.887Z,23.90
2024-03-04T04:05:46.797Z,21.85
2024-03-04T04:08:15.870Z,22.23
2024-03-04T04:10:43.696Z,22.83
2024-03-04T04:13:11.797Z,21.48
2024-03-04T04:15:40.030Z,22.08
2024-03-04T04:18:07.835Z,23.02
2024-03-04T04:20:35.540Z,21.92
2024-03-04T04:23:03.236Z,22.13
2024-03-04T04:25:32.898Z,22.23
2024-03-04T04:28:01.381Z,20.70
2024-03-04T04:30:29.061Z,20.77
2024-03-04T04:32:56.759Z,20.55
2024-03-04T04:35:24.406Z,22.00
2024-03-04T04:37:52.058Z,20.17
2024-03-04T04:40:20.492Z,19.95
2024-03-04T04:42:49.575Z,20.38
2024-03-04T04:45:18.629Z,19.77
2024-03-04T04:47:46.386Z,18.05
2024-03-04T04:50:14.603Z,17.20
2024-03-04T04:52:42.391Z,18.58
2024-03-04T04:55:11.993Z,18.17
2024-03-04T04:57:40.520Z,17.70
2024-03-04T05:00:13.493Z,16.90
2024-03-04T05:02:42.135Z,17.83
2024-03-04T05:05:10.356Z,17.80
2024-03-04T05:07:39.359Z,18.17
2024-03-04T05:10:08.350Z,17.10
2024-03-04T05:12:36.005Z,16.98
2024-03-04T05:15:05.293Z,17.63
2024-03-04T05:17:34.287Z,17.50
2024-03-04T05:20:02.043Z,18.92
2024-03-04T05:22:29.730Z,17.40
2024-03-04T05:24:57.760Z,18.17
2024-03-04T05:27:28.042Z,18.45
2024-03-04T05:29:57.272Z,17.95
2024-03-04T05:32:25.240Z,19.05
2024-03-04T05:34:54.192Z,18.33
2024-03-04T05:37:22.789Z,18.13
2024-03-04T05:39:52.140Z,17.48
2024-03-04T05:42:19.822Z,16.75
2024-03-04T05:44:47.584Z,18.33
2024-03-04T05:47:15.881Z,17.42
2024-03-04T05:49:43.558Z,19.60
2024-03-04T05:52:12.763Z,18.63
2024-03-04T05:54:40.484Z,17.90
2024-03-04T05:57:08.205Z,17.15
2024-03-04T05:59:35.844Z,18.38
2024-03-04T06:02:03.642Z,17.90
2024-03-04T06:04:32.760Z,17.48
2024-03-04T06:07:02.861Z,17.98
2024-03-04T06:09:32.015Z,18.10
2024-03-04T06:12:01.512Z,17.70
2024-03-04T06:14:29.581Z,18.05
2024-03-04T06:16:57.306Z,17.02
2024-03-04T06:19:25.096Z,16.75
2024-03-04T06:22:04.741Z,16.58
2024-03-04T06:24:37.285Z,16.00
2024-03-04T06:27:05.385Z,19.27
2024-03-04T06:29:34.865Z,17.20
2024-03-04T06:32:02.611Z,17.60
2024-03-04T06:34:31.310Z,18.50
2024-03-04T06:36:59.322Z,18.15
2024-03-04T06:39:28.652Z,19.38
2024-03-04T06:41:57.770Z,18.80
2024-03-04T06:44:25.420Z,18.60
2024-03-04T06:46:53.108Z,19.48
2024-03-04T06:49:20.954Z,20.60
2024-03-04T06:51:48.700Z,19.88
2024-03-04T06:54:16.720Z,19.23
2024-03-04T06:56:44.536Z,17.15
2024-03-04T06:59:13.462Z,13.85
2024-03-04T07:01:41.221Z,12.88
2024-03-04T07:04:09.067Z,12.98
2024-03-04T07:06:36.768Z,13.30
2024-03-04T07:09:05.150Z,11.43
2024-03-04T07:11:32.828Z,11.65
2024-03-04T07:14:00.419Z,11.88
2024-03-04T07:16:29.446Z,11.65
2024-03-04T07:18:57.115Z,11.85
2024-03-04T07:21:24.930Z,11.30
2024-03-04T07:23:52.739Z,12.25
2024-03-04T07:26:21.631Z,11.45
2024-03-04T07:28:49.502Z,11.82
2024-03-04T07:31:17.538Z,12.23
2024-03-04T07:33:47.705Z,11.27
2024-03-04T07:36:17.410Z,10.80
2024-03-04T07:38:45.432Z,11.52
2024-03-04T07:41:13.072Z,12.35
2024-03-04T07:43:42.164Z,11.48
2024-03-04T07:46:10.335Z,11.50
2024-03-04T07:48:38.002Z,11.20
2024-03-04T07:51:07.566Z,12.05
2024-03-04T07:53:35.224Z,10.32
2024-03-04T07:56:02.970Z,11.70
2024-03-04T07:58:30.686Z,11.93
2024-03-04T08:01:01.069Z,12.45
2024-03-04T08:03:28.960Z,14.32
2024-03-04T08:05:56.803Z,18.92
2024-03-04T08:08:25.788Z,17.17
2024-03-04T08:10:53.743Z,15.65
2024-03-04T08:13:21.578Z,12.88
2024-03-04T08:15:50.049Z,12.70
2024-03-04T08:18:17.867Z,13.75
2024-03-04T08:20:45.768Z,12.70
2024-03-04T08:23:13.452Z,14.18
2024-03-04T08:25:42.526Z,12.10
2024-03-04T08:28:19.584Z,13.65
2024-03-04T08:30:52.045Z,12.93
2024-03-04T08:33:19.705Z,13.63
2024-03-04T08:35:47.361Z,12.73
2024-03-04T08:38:15.104Z,14.30
2024-03-04T08:40:44.217Z,12.73
2024-03-04T08:43:12.033Z,13.15
2024-03-04T08:45:39.699Z,14.23
2024-03-04T08:48:09.332Z,13.48
2024-03-04T08:50:37.170Z,13.25
2024-03-04T08:53:05.242Z,13.07
2024-03-04T08:55:32.874Z,13.25
2024-03-04T08:58:01.983Z,14.50
2024-03-04T09:00:29.898Z,14.68
2024-03-04T09:02:57.999Z,14.10
2024-03-04T09:05:25.635Z,13.52
2024-03-04T09:07:53.315Z,13.68
2024-03-04T09:10:20.989Z,13.10
2024-03-04T09:12:48.700Z,12.98
2024-03-04T09:15:18.691Z,13.18
2024-03-04T09:17:46.467Z,14.13
2024-03-04T09:20:14.279Z,13.23
2024-03-04T09:22:42.258Z,14.75
2024-03-04T09:25:09.342Z,13.07
2024-03-04T09:27:37.625Z,13.85
2024-03-04T09:30:07.961Z,13.25
2024-03-04T09:32:37.181Z,13.57
2024-03-04T09:35:05.892Z,12.73
2024-03-04T09:37:33.637Z,13.38
2024-03-04T09:40:01.848Z,13.07
2024-03-04T09:42:32.048Z,13.73
2024-03-04T09:45:00.125Z,12.70
2024-03-04T09:47:28.787Z,14.52
2024-03-04T09:49:58.361Z,14.02
2024-03-04T09:52:30.625Z,14.45
2024-03-04T09:55:02.047Z,13.35
2024-03-04T09:57:30.533Z,13.95
2024-03-04T09:59:59.454Z,12.75
2024-03-04T10:02:27.314Z,12.98
2024-03-04T10:04:55.607Z,12.95
2024-03-04T10:07:25.193Z,12.95
2024-03-04T10:09:55.429Z,12.15
2024-03-04T10:12:23.594Z,11.93
2024-03-04T10:15:07.109Z,13.98
2024-03-04T10:17:34.945Z,12.75
2024-03-04T10:20:04.467Z,13.07
2024-03-04T10:22:37.121Z,12.95
2024-03-04T10:25:06.251Z,13.13
2024-03-04T10:27:34.753Z,13.75
2024-03-04T10:30:11.137Z,12.65
2024-03-04T10:32:39.493Z,12.85
2024-03-04T10:35:08.363Z,13.48
2024-03-04T10:37:37.447Z,12.07
2024-03-04T10:40:06.479Z,12.63
2024-03-04T10:42:34.184Z,12.95
2024-03-04T10:45:02.113Z,12.45
2024-03-04T10:47:30.147Z,13.63
2024-03-04T10:49:57.809Z,12.65
2024-03-04T10:52:25.457Z,13.52
2024-03-04T10:54:54.987Z,12.52
2024-03-04T10:57:29.745Z,13.13
2024-03-04T10:59:58.822Z,13.80
2024-03-04T11:02:34.220Z,13.60
2024-03-04T11:05:03.376Z,12.52
2024-03-04T11:07:32.972Z,12.60
2024-03-04T11:10:07.226Z,12.95
2024-03-04T11:12:35.231Z,12.95
2024-03-04T11:15:08.399Z,12.70
2024-03-04T11:17:38.266Z,12.70
2024-03-04T11:20:09.100Z,14.55
2024-03-04T11:22:38.652Z,15.48
2024-03-04T11:25:08.937Z,14.93
2024-03-04T11:27:37.254Z,14.15
2024-03-04T11:30:06.992Z,13.75
2024-03-04T11:32:34.830Z,13.20
2024-03-04T11:35:07.289Z,12.45
2024-03-04T11:42:39.841Z,11.98
2024-03-04T11:45:08.900Z,12.93
2024-03-04T11:47:36.689Z,12.15
2024-03-04T11:50:07.113Z,12.57
2024-03-04T11:52:39.479Z,12.48
2024-03-04T11:55:10.676Z,12.23
2024-03-04T11:57:38.455Z,11.50
2024-03-04T12:00:11.062Z,11.80
2024-03-04T12:02:39.098Z,10.93
2024-03-04T12:05:07.750Z,11.32
2024-03-04T12:07:35.519Z,11.32
2024-03-04T12:10:12.987Z,10.93
2024-03-04T12:12:46.322Z,11.20
2024-03-04T12:15:14.001Z,10.95
2024-03-04T12:17:42.023Z,12.18
2024-03-04T12:20:11.363Z,10.32
2024-03-04T12:22:39.767Z,11.93
2024-03-04T12:25:09.777Z,10.38
2024-03-04T12:27:39.160Z,10.27
2024-03-04T12:30:15.569Z,10.68
2024-03-04T12:32:43.771Z,11.18
2024-03-04T12:35:18.694Z,10.13
2024-03-04T12:37:48.572Z,10.23
2024-03-04T12:40:16.996Z,9.68
2024-03-04T12:42:44.653Z,10.63
2024-03-04T12:45:13.942Z,10.20
2024-03-04T12:47:42.121Z,10.90
2024-03-04T12:50:11.363Z,9.10
2024-03-04T12:52:40.925Z,9.93
2024-03-04T12:55:14.580Z,10.57
2024-03-04T12:57:42.236Z,10.30
2024-03-04T13:00:13.969Z,10.20
2024-03-04T13:02:43.950Z,10.63
2024-03-04T13:05:11.994Z,10.30
2024-03-04T13:07:40.756Z,11.20
2024-03-04T13:10:10.759Z,10.85
2024-03-04T13:12:39.558Z,10.57
2024-03-04T13:15:09.071Z,10.88
2024-03-04T13:17:36.970Z,10.00
2024-03-04T13:20:10.243Z,10.38
2024-03-04T13:22:38.508Z,10.13
2024-03-04T13:25:07.838Z,9.63
2024-03-04T13:27:35.917Z,10.48
2024-03-04T13:30:04.476Z,10.35
2024-03-04T13:32:32.288Z,11.07
2024-03-04T13:35:00.002Z,10.07
2024-03-04T13:37:29.357Z,9.68
2024-03-04T13:39:57.647Z,10.02
2024-03-04T13:42:25.545Z,10.25
2024-03-04T13:44:53.210Z,10.45
2024-03-04T13:47:20.850Z,9.82
2024-03-04T13:49:49.684Z,10.63
2024-03-04T13:52:17.473Z,11.25
2024-03-04T13:54:46.573Z,9.98
2024-03-04T13:57:14.268Z,10.75
2024-03-04T13:59:41.915Z,10.45
2024-03-04T14:02:09.635Z,11.40
2024-03-04T14:04:37.406Z,10.60
2024-03-04T14:07:05.905Z,10.55
2024-03-04T14:09:33.774Z,10.07
2024-03-04T14:12:02.742Z,10.77
2024-03-04T14:14:30.353Z,9.82
2024-03-04T14:16:58.016Z,11.00
2024-03-04T14:19:25.701Z,10.68
2024-03-04T14:21:53.348Z,10.43
2024-03-04T14:24:21.449Z,10.10
2024-03-04T14:26:49.119Z,10.30
2024-03-04T14:29:18.157Z,9.75
2024-03-04T14:31:45.839Z,11.13
2024-03-04T14:34:13.705Z,11.23
2024-03-04T14:36:41.369Z,10.63
2024-03-04T14:39:12.209Z,9.98
2024-03-04T14:41:40.276Z,12.20
2024-03-04T14:44:08.296Z,11.15
2024-03-04T14:46:37.378Z,10.70
2024-03-04T14:49:05.165Z,10.93
2024-03-04T14:51:34.085Z,10.20
2024-03-04T14:54:01.730Z,11.23
2024-03-04T14:56:31.209Z,11.25
2024-03-04T14:58:59.040Z,10.32
2024-03-04T15:01:26.717Z,11.88
2024-03-04T15:03:55.671Z,11.80
2024-03-04T15:06:23.269Z,11.50
2024-03-04T15:08:51.795Z,11.73
2024-03-04T15:11:19.755Z,13.13
2024-03-04T15:13:47.714Z,12.57
2024-03-04T15:16:17.153Z,13.80
2024-03-04T15:18:44.852Z,13.60
2024-03-04T15:21:13.939Z,13.57
2024-03-04T15:23:41.562Z,13.25
2024-03-04T15:26:09.165Z,13.07
2024-03-04T15:28:36.891Z,12.57
2024-03-04T15:31:04.801Z,14.23
2024-03-04T15:33:32.653Z,13.63
2024-03-04T15:36:09.877Z,13.23
2024-03-04T15:38:46.636Z,12.73
2024-03-04T15:41:14.297Z,13.23
2024-03-04T15:43:42.130Z,12.80
2024-03-04T15:46:09.911Z,13.18
2024-03-04T15:48:37.630Z,13.35
2024-03-04T15:51:07.009Z,13.70
2024-03-04T15:53:35.432Z,13.38
2024-03-04T15:56:05.428Z,12.75
2024-03-04T15:58:33.146Z,12.57
2024-03-04T16:01:02.493Z,11.90
2024-03-04T16:03:33.248Z,11.07
2024-03-04T16:06:03.448Z,12.07
2024-03-04T16:08:31.171Z,11.43
2024-03-04T16:10:59.047Z,10.80
2024-03-04T16:13:28.570Z,12.18
2024-03-04T16:15:59.202Z,11.57
2024-03-04T16:18:27.303Z,10.73
2024-03-04T16:20:54.899Z,10.32
2024-03-04T16:23:22.596Z,10.68
2024-03-04T16:25:50.273Z,10.60
2024-03-04T16:28:18.725Z,10.32
2024-03-04T16:30:49.112Z,10.90
2024-03-04T16:33:16.866Z,10.98
2024-03-04T16:35:44.580Z,10.13
2024-03-04T16:38:12.832Z,11.00
2024-03-04T16:40:41.689Z,10.95
2024-03-04T16:43:09.477Z,10.95
2024-03-04T16:45:37.812Z,10.98
2024-03-04T16:48:07.478Z,9.50
2024-03-04T16:50:35.141Z,11.15
2024-03-04T16:53:02.927Z,10.82
2024-03-04T16:55:34.686Z,9.90
2024-03-04T16:58:04.395Z,10.98
2024-03-04T17:00:32.095Z,10.27
2024-03-04T17:02:59.854Z,9.45
2024-03-04T17:05:28.861Z,9.23
2024-03-04T17:07:56.630Z,9.05
2024-03-04T17:10:24.290Z,9.68
2024-03-04T17:12:53.558Z,9.38
2024-03-04T17:15:22.759Z,9.30
2024-03-04T17:17:52.604Z,8.55
2024-03-04T17:20:22.464Z,8.68
2024-03-04T17:22:51.522Z,9.18
2024-03-04T17:25:19.344Z,9.00
2024-03-04T17:27:47.049Z,10.35
2024-03-04T17:30:15.008Z,9.82
2024-03-04T17:32:42.717Z,9.88
2024-03-04T17:35:10.514Z,9.15
2024-03-04T17:37:38.202Z,9.70
2024-03-04T17:40:09.579Z,9.77
2024-03-04T17:42:37.290Z,9.75
2024-03-04T17:45:05.764Z,9.88
2024-03-04T17:47:33.444Z,9.98
2024-03-04T17:50:01.116Z,9.38
2024-03-04T17:52:28.865Z,10.07
2024-03-04T17:54:56.596Z,9.13
2024-03-04T17:57:25.964Z,9.98
2024-03-04T17:59:53.698Z,10.35
2024-03-04T18:02:22.693Z,8.88
2024-03-04T18:04:51.019Z,9.63
2024-03-04T18:07:18.798Z,9.63
2024-03-04T18:09:47.528Z,9.65
2024-03-04T18:12:15.207Z,9.75
2024-03-04T18:14:44.896Z,9.05
2024-03-04T18:17:12.721Z,9.02
2024-03-04T18:19:40.391Z,8.73
2024-03-04T18:22:09.076Z,8.90
2024-03-04T18:24:37.625Z,9.27
2024-03-04T18:27:05.650Z,9.35
2024-03-04T18:29:33.838Z,9.35
2024-03-04T18:32:02.850Z,9.32
2024-03-04T18:34:30.761Z,9.05
2024-03-04T18:36:59.569Z,9.77
2024-03-04T18:39:28.475Z,9.88
2024-03-04T18:41:57.934Z,9.45
2024-03-04T18:44:25.610Z,9.80
2024-03-04T18:46:53.331Z,10.07
2024-03-04T18:49:22.523Z,9.25
2024-03-04T18:51:50.204Z,10.57
2024-03-04T18:54:18.710Z,10.20
2024-03-04T18:56:47.314Z,10.30
2024-03-04T18:59:15.018Z,11.15
2024-03-04T19:01:42.756Z,10.10
2024-03-04T19:04:10.456Z,10.60
2024-03-04T19:06:39.567Z,11.57
2024-03-04T19:09:07.267Z,10.93
2024-03-04T19:11:35.176Z,10.30
2024-03-04T19:14:02.922Z,10.98
2024-03-04T19:16:30.704Z,11.23
2024-03-04T19:18:58.418Z,11.07
2024-03-04T19:21:27.397Z,11.43
2024-03-04T19:23:56.596Z,11.20
2024-03-04T19:26:24.226Z,11.15
2024-03-04T19:28:52.852Z,12.02
2024-03-04T19:31:21.505Z,12.48
2024-03-04T19:33:50.946Z,11.68
2024-03-04T19:36:18.694Z,12.35
2024-03-04T19:38:46.439Z,11.43
2024-03-04T19:41:20.071Z,12.27
2024-03-04T19:43:47.800Z,12.05
2024-03-04T19:46:22.433Z,12.73
2024-03-04T19:48:51.743Z,12.77
2024-03-04T19:51:22.859Z,12.00
2024-03-04T19:53:50.732Z,12.98
2024-03-04T19:56:19.868Z,11.38
2024-03-04T19:58:48.043Z,12.05
2024-03-04T20:01:16.520Z,13.40
2024-03-04T20:03:45.009Z,12.23
2024-03-04T20:06:13.171Z,11.70
2024-03-04T20:08:41.972Z,11.93
2024-03-04T20:11:11.941Z,11.68
2024-03-04T20:13:42.047Z,14.82
2024-03-04T20:16:10.492Z,13.70
2024-03-04T20:18:38.295Z,12.52
2024-03-04T20:21:07.875Z,12.75
2024-03-04T20:23:37.012Z,12.30
2024-03-04T20:26:05.168Z,11.85
2024-03-04T20:28:34.928Z,12.68
2024-03-04T20:31:04.733Z,12.05
2024-03-04T20:33:33.449Z,12.73
2024-03-04T20:36:02.254Z,12.35
2024-03-04T20:38:29.895Z,11.70
2024-03-04T20:40:58.060Z,11.50
2024-03-04T20:43:25.928Z,12.15
2024-03-04T20:45:54.223Z,12.40
2024-03-04T20:48:25.705Z,12.70
2024-03-04T20:50:54.310Z,12.80
2024-03-04T20:53:22.187Z,12.05
2024-03-04T20:55:50.133Z,12.50
2024-03-04T20:58:17.889Z,13.40
2024-03-04T21:00:46.098Z,11.85
2024-03-04T21:03:13.900Z,12.80
2024-03-04T21:05:42.853Z,12.68
2024-03-04T21:08:10.782Z,12.50
2024-03-04T21:10:38.463Z,12.63
2024-03-04T21:13:06.237Z,12.43
2024-03-04T21:15:34.181Z,11.82
2024-03-04T21:18:01.931Z,12.23
2024-03-04T21:20:29.709Z,12.07
2024-03-04T21:23:03.740Z,11.55
2024-03-04T21:25:31.720Z,12.38
2024-03-04T21:27:59.420Z,13.20
2024-03-04T21:30:28.955Z,14.77
2024-03-04T21:32:56.594Z,13.18
2024-03-04T21:35:24.376Z,12.65
2024-03-04T21:37:52.085Z,11.68
2024-03-04T21:40:21.252Z,12.98
2024-03-04T21:42:48.974Z,12.43
2024-03-04T21:45:16.630Z,12.32
2024-03-04T21:47:45.438Z,13.02
2024-03-04T21:50:13.165Z,13.20
2024-03-04T21:52:42.013Z,12.40
2024-03-04T21:55:12.176Z,12.25
2024-03-04T21:57:41.575Z,11.45
2024-03-04T22:00:15.733Z,12.25
2024-03-04T22:02:44.354Z,11.75
2024-03-04T22:05:13.574Z,11.45
2024-03-04T22:07:42.150Z,12.73
2024-03-04T22:10:12.059Z,12.52
2024-03-04T22:12:41.404Z,12.85
2024-03-04T22:15:11.042Z,12.48
2024-03-04T22:17:39.022Z,12.35
2024-03-04T22:20:10.995Z,12.77
2024-03-04T22:22:39.257Z,12.57
2024-03-04T22:25:07.994Z,12.80
2024-03-04T22:27:35.909Z,13.70
2024-03-04T22:30:05.607Z,11.13
2024-03-04T22:32:33.284Z,12.93
2024-03-04T22:35:01.934Z,12.10
2024-03-04T22:37:31.616Z,12.40
2024-03-04T22:39:59.274Z,11.95
2024-03-04T22:42:26.889Z,10.88
2024-03-04T22:44:54.660Z,11.05
2024-03-04T22:47:24.699Z,11.05
2024-03-04T22:49:52.582Z,11.90
2024-03-04T22:52:20.433Z,13.00
2024-03-04T22:54:49.080Z,11.38
2024-03-04T22:57:16.836Z,10.95
2024-03-04T22:59:45.132Z,11.32
2024-03-04T23:02:13.035Z,10.65
2024-03-04T23:04:42.216Z,11.02
2024-03-04T23:07:10.015Z,11.70
2024-03-04T23:09:39.279Z,11.00
2024-03-04T23:12:10.045Z,11.57
2024-03-04T23:14:38.407Z,12.18
2024-03-04T23:17:07.251Z,11.52
2024-03-04T23:19:35.266Z,12.18
2024-03-04T23:22:04.347Z,12.50
2024-03-04T23:24:31.967Z,11.15
2024-03-04T23:26:59.614Z,12.30
2024-03-04T23:29:27.288Z,11.48
2024-03-04T23:31:55.441Z,11.98
2024-03-04T23:34:23.165Z,11.93
2024-03-04T23:36:51.496Z,12.18
2024-03-04T23:39:24.693Z,11.40
2024-03-04T23:41:52.647Z,12.95
2024-03-04T23:44:20.762Z,11.57
2024-03-04T23:46:48.544Z,12.07
2024-03-04T23:49:16.306Z,13.45
2024-03-04T23:51:43.889Z,11.60
2024-03-04T23:54:11.679Z,10.98
2024-03-04T23:56:42.646Z,12.13
2024-03-04T23:59:10.398Z,12.60
